Time;durP1;ratioP1;P1;durP2;ratioP2;P2;SDS_P1;SDS_P2;PMS_P1;PMS_P2;Temp;Humidity;BMP_temperature;BMP_pressure;BME280_temperature;BME280_humidity;BME280_pressure;Samples;Min_cycle;Max_cycle;Signal;HPM_P1;HPM_P2
2022/10/08 00:01:05;;;;;;;9.32;5.95;;;;;;;;;;6022947;29;20200;-76
2022/10/08 00:04:11;;;;;;;10.80;6.00;;;;;;;;;;6024590;29;20064;-78
2022/10/08 00:07:17;;;;;;;16.42;6.38;;;;;;;;;;6016792;29;20053;-78
2022/10/08 00:10:23;;;;;;;11.90;6.00;;;;;;;;;;6031309;29;20076;-77
2022/10/08 00:13:26;;;;;;;7.97;5.00;;;;;;;;;;6017767;29;20328;-77
2022/10/08 00:16:38;;;;;;;14.50;6.40;;;;;;;;;;6015627;29;20498;-78
2022/10/08 00:19:45;;;;;;;14.50;5.72;;;;;;;;;;6021521;29;20060;-76
2022/10/08 00:22:48;;;;;;;10.25;4.95;;;;;;;;;;6024559;29;20053;-78
2022/10/08 00:25:50;;;;;;;11.73;5.00;;;;;;;;;;6032301;29;20096;-78
2022/10/08 00:28:54;;;;;;;9.25;4.97;;;;;;;;;;6035030;29;20510;-78
2022/10/08 00:31:56;;;;;;;9.88;5.30;;;;;;;;;;6036763;29;20052;-77
2022/10/08 00:34:58;;;;;;;10.43;5.60;;;;;;;;;;6038085;29;20041;-77
2022/10/08 00:37:59;;;;;;;8.52;4.93;;;;;;;;;;6022690;29;20057;-77
2022/10/08 00:41:04;;;;;;;12.45;5.35;;;;;;;;;;6020811;29;20063;-77
2022/10/08 00:44:43;;;;;;;10.25;4.80;;;;;;;;;;6024303;29;20165;-77
2022/10/08 00:47:47;;;;;;;10.20;5.00;;;;;;;;;;6019625;29;20052;-76
2022/10/08 00:50:49;;;;;;;13.63;5.22;;;;;;;;;;6036544;29;20054;-77
2022/10/08 00:53:51;;;;;;;12.77;5.10;;;;;;;;;;6035200;29;20053;-76
2022/10/08 00:56:53;;;;;;;12.82;5.78;;;;;;;;;;6040738;29;20053;-76
2022/10/08 00:59:55;;;;;;;9.18;4.55;;;;;;;;;;6022466;29;20750;-77
2022/10/08 01:02:57;;;;;;;10.10;4.88;;;;;;;;;;6036971;29;20041;-76
2022/10/08 01:06:25;;;;;;;9.35;4.45;;;;;;;;;;6022066;29;20128;-78
2022/10/08 01:09:41;;;;;;;9.57;4.60;;;;;;;;;;6041874;29;20139;-78
2022/10/08 01:12:51;;;;;;;12.10;5.10;;;;;;;;;;6035723;29;20052;-78
2022/10/08 01:16:03;;;;;;;8.20;4.25;;;;;;;;;;6039074;29;20049;-78
2022/10/08 01:19:27;;;;;;;7.47;4.45;;;;;;;;;;6022051;29;20122;-78
2022/10/08 01:22:32;;;;;;;8.43;4.30;;;;;;;;;;6037937;29;20049;-78
2022/10/08 01:25:46;;;;;;;11.88;4.70;;;;;;;;;;6039769;29;20076;-78
2022/10/08 01:29:14;;;;;;;8.85;4.05;;;;;;;;;;6022490;29;20063;-78
2022/10/08 01:32:24;;;;;;;7.07;3.72;;;;;;;;;;6045599;29;20029;-77
2022/10/08 01:35:30;;;;;;;7.82;3.78;;;;;;;;;;6024941;29;20060;-77
2022/10/08 01:38:37;;;;;;;9.93;4.65;;;;;;;;;;5997571;29;20056;-77
2022/10/08 01:41:45;;;;;;;10.52;4.28;;;;;;;;;;6006558;29;20053;-76
2022/10/08 01:44:57;;;;;;;9.32;3.80;;;;;;;;;;6026868;29;20060;-77
2022/10/08 01:48:04;;;;;;;7.40;3.88;;;;;;;;;;6029481;29;20059;-78
2022/10/08 01:51:28;;;;;;;9.35;4.47;;;;;;;;;;6032484;29;20044;-76
2022/10/08 01:54:31;;;;;;;11.05;4.32;;;;;;;;;;6031808;29;20063;-79
2022/10/08 01:57:36;;;;;;;9.77;4.63;;;;;;;;;;6033662;29;20433;-78
2022/10/08 02:00:40;;;;;;;13.45;5.07;;;;;;;;;;6039122;29;20126;-78
2022/10/08 02:04:31;;;;;;;12.05;4.53;;;;;;;;;;6024240;29;20543;-77
2022/10/08 02:07:07;;;;;;;13.40;3.70;;;;;;;;;;6034547;29;21643;-77
2022/10/08 02:10:18;;;;;;;9.38;3.92;;;;;;;;;;6034478;29;20068;-77
2022/10/08 02:13:20;;;;;;;11.15;3.92;;;;;;;;;;6006811;29;20049;-77
2022/10/08 02:16:28;;;;;;;10.43;4.47;;;;;;;;;;6012128;29;20884;-78
2022/10/08 02:19:55;;;;;;;7.38;4.25;;;;;;;;;;6022607;29;20052;-76
2022/10/08 02:23:17;;;;;;;10.63;4.20;;;;;;;;;;6019327;29;20049;-77
2022/10/08 02:26:25;;;;;;;9.30;3.72;;;;;;;;;;6021269;29;22224;-78
2022/10/08 02:29:37;;;;;;;8.45;4.28;;;;;;;;;;6038305;29;20044;-77
2022/10/08 02:32:47;;;;;;;7.80;4.35;;;;;;;;;;6021557;29;20559;-77
2022/10/08 02:35:53;;;;;;;10.23;4.13;;;;;;;;;;6029330;29;20593;-78
2022/10/08 02:38:58;;;;;;;8.60;4.28;;;;;;;;;;6039584;29;20056;-78
2022/10/08 02:42:04;;;;;;;6.50;3.70;;;;;;;;;;6036291;29;20260;-76
2022/10/08 02:45:28;;;;;;;6.50;3.28;;;;;;;;;;6040016;29;20150;-78
2022/10/08 02:48:33;;;;;;;7.82;4.03;;;;;;;;;;6037979;29;20112;-78
2022/10/08 02:51:38;;;;;;;8.25;4.07;;;;;;;;;;6038344;29;20047;-77
2022/10/08 02:54:43;;;;;;;11.25;4.97;;;;;;;;;;6022979;29;20061;-77
2022/10/08 02:57:52;;;;;;;14.95;5.68;;;;;;;;;;6039389;29;20130;-77
2022/10/08 03:00:58;;;;;;;13.48;5.00;;;;;;;;;;6021555;29;20048;-78
2022/10/08 03:04:06;;;;;;;11.07;4.30;;;;;;;;;;6021557;29;20052;-77
2022/10/08 03:07:09;;;;;;;9.13;4.20;;;;;;;;;;6036839;29;20074;-79
2022/10/08 03:10:11;;;;;;;8.73;3.92;;;;;;;;;;6035836;29;20053;-76
2022/10/08 03:13:13;;;;;;;9.07;4.22;;;;;;;;;;6016759;29;20049;-78
2022/10/08 03:16:20;;;;;;;10.07;4.35;;;;;;;;;;6036262;29;20044;-77
2022/10/08 03:19:21;;;;;;;9.75;4.00;;;;;;;;;;6039049;29;20049;-79
2022/10/08 03:22:23;;;;;;;8.00;4.45;;;;;;;;;;6037340;29;20060;-78
2022/10/08 03:25:25;;;;;;;11.00;4.18;;;;;;;;;;6033780;29;20055;-77
2022/10/08 03:28:27;;;;;;;10.05;4.78;;;;;;;;;;6038647;29;20522;-78
2022/10/08 03:31:29;;;;;;;9.07;4.15;;;;;;;;;;6024091;29;20074;-77
2022/10/08 03:34:30;;;;;;;8.32;4.32;;;;;;;;;;6034850;29;20132;-76
2022/10/08 03:37:32;;;;;;;8.35;3.92;;;;;;;;;;6015473;29;20730;-77
2022/10/08 03:40:33;;;;;;;7.63;4.25;;;;;;;;;;6038610;29;20049;-77
2022/10/08 03:43:35;;;;;;;8.95;3.78;;;;;;;;;;6035981;29;20048;-77
2022/10/08 03:46:37;;;;;;;6.80;3.50;;;;;;;;;;6009751;29;20045;-77
2022/10/08 03:49:40;;;;;;;7.00;3.60;;;;;;;;;;6012782;29;20545;-77
2022/10/08 03:52:41;;;;;;;8.93;3.58;;;;;;;;;;6037321;29;20209;-77
2022/10/08 03:55:43;;;;;;;6.25;3.42;;;;;;;;;;6033263;29;20277;-79
2022/10/08 03:58:46;;;;;;;7.97;3.53;;;;;;;;;;6018026;29;20068;-78
2022/10/08 04:01:47;;;;;;;6.63;3.67;;;;;;;;;;6032939;29;20055;-79
2022/10/08 04:04:49;;;;;;;6.30;3.10;;;;;;;;;;6017343;29;20059;-76
2022/10/08 04:07:51;;;;;;;9.13;4.05;;;;;;;;;;6017763;29;20063;-78
2022/10/08 04:10:53;;;;;;;6.32;3.28;;;;;;;;;;6031528;29;20160;-77
2022/10/08 04:13:55;;;;;;;10.38;3.63;;;;;;;;;;6032433;29;20049;-78
2022/10/08 04:16:56;;;;;;;7.13;3.33;;;;;;;;;;6028665;29;20079;-77
2022/10/08 04:19:58;;;;;;;8.23;3.50;;;;;;;;;;6020384;29;20044;-77
2022/10/08 04:22:59;;;;;;;7.70;3.33;;;;;;;;;;6029495;29;20045;-76
2022/10/08 04:26:01;;;;;;;6.78;3.60;;;;;;;;;;6011203;29;20053;-77
2022/10/08 04:29:03;;;;;;;5.78;3.50;;;;;;;;;;6016957;29;20060;-77
2022/10/08 04:32:05;;;;;;;7.60;3.78;;;;;;;;;;6029947;29;20059;-79
2022/10/08 04:35:07;;;;;;;7.50;3.55;;;;;;;;;;6031932;29;20074;-76
2022/10/08 04:38:08;;;;;;;14.65;4.25;;;;;;;;;;6013062;29;20061;-77
2022/10/08 04:41:15;;;;;;;11.68;4.40;;;;;;;;;;6030353;29;20112;-77
2022/10/08 04:44:19;;;;;;;9.20;4.22;;;;;;;;;;6033597;29;20056;-77
2022/10/08 04:47:21;;;;;;;5.60;3.17;;;;;;;;;;6020071;29;20126;-77
2022/10/08 04:50:22;;;;;;;19.95;4.00;;;;;;;;;;6001186;29;20056;-77
2022/10/08 04:53:27;;;;;;;15.27;3.92;;;;;;;;;;6023987;29;20068;-76
2022/10/08 04:56:30;;;;;;;9.48;3.60;;;;;;;;;;5993961;29;20368;-77
2022/10/08 04:59:32;;;;;;;8.25;4.25;;;;;;;;;;6018579;29;20409;-78
2022/10/08 05:02:34;;;;;;;8.35;4.20;;;;;;;;;;6027777;29;20069;-77
2022/10/08 05:05:43;;;;;;;8.88;3.67;;;;;;;;;;6012606;29;20049;-76
2022/10/08 05:08:46;;;;;;;11.35;4.47;;;;;;;;;;6030597;29;20054;-79
2022/10/08 05:11:50;;;;;;;13.45;5.05;;;;;;;;;;6033105;29;20060;-78
2022/10/08 05:14:52;;;;;;;8.10;4.82;;;;;;;;;;6030838;29;20051;-77
2022/10/08 05:17:55;;;;;;;10.05;4.82;;;;;;;;;;6044899;24;20161;-83
2022/10/08 05:21:01;;;;;;;8.82;4.60;;;;;;;;;;6032009;29;20124;-83
2022/10/08 05:24:05;;;;;;;10.35;5.03;;;;;;;;;;6041577;29;20049;-83
2022/10/08 05:27:07;;;;;;;9.82;4.75;;;;;;;;;;6035479;29;20041;-83
2022/10/08 05:30:09;;;;;;;10.32;6.60;;;;;;;;;;6027130;29;20043;-84
2022/10/08 05:33:11;;;;;;;11.73;6.55;;;;;;;;;;6051779;29;20052;-83
2022/10/08 05:36:20;;;;;;;8.52;4.75;;;;;;;;;;6063279;29;20049;-83
2022/10/08 05:39:21;;;;;;;7.38;3.92;;;;;;;;;;6047587;29;20045;-84
2022/10/08 05:42:23;;;;;;;8.63;4.00;;;;;;;;;;6033187;29;20049;-84
2022/10/08 05:45:25;;;;;;;7.07;3.75;;;;;;;;;;6025406;29;20045;-84
2022/10/08 05:48:26;;;;;;;7.38;3.88;;;;;;;;;;6028067;29;20191;-84
2022/10/08 05:51:28;;;;;;;5.72;3.78;;;;;;;;;;6051160;29;20365;-83
2022/10/08 05:54:30;;;;;;;8.45;4.88;;;;;;;;;;6050449;29;20037;-84
2022/10/08 05:57:32;;;;;;;5.97;4.30;;;;;;;;;;6037068;29;20073;-82
2022/10/08 06:00:33;;;;;;;7.47;4.50;;;;;;;;;;6020062;29;20092;-84
2022/10/08 06:03:37;;;;;;;8.25;4.25;;;;;;;;;;6032003;29;20048;-83
2022/10/08 06:06:41;;;;;;;6.50;3.78;;;;;;;;;;6027912;29;20176;-84
2022/10/08 06:09:43;;;;;;;11.43;5.07;;;;;;;;;;6008312;29;20100;-83
2022/10/08 06:12:47;;;;;;;8.07;4.85;;;;;;;;;;6032539;29;20069;-83
2022/10/08 06:16:07;;;;;;;7.75;5.00;;;;;;;;;;6028530;29;20049;-84
2022/10/08 06:19:11;;;;;;;10.45;5.10;;;;;;;;;;6035774;29;20674;-84
2022/10/08 06:22:13;;;;;;;11.30;5.22;;;;;;;;;;6057206;29;20068;-84
2022/10/08 06:25:15;;;;;;;7.70;5.32;;;;;;;;;;6024478;29;20147;-85
2022/10/08 06:28:17;;;;;;;12.13;7.07;;;;;;;;;;6022373;29;20577;-84
2022/10/08 06:31:19;;;;;;;9.88;5.75;;;;;;;;;;6056860;29;20048;-83
2022/10/08 06:34:22;;;;;;;16.27;6.40;;;;;;;;;;6039448;29;20077;-83
2022/10/08 06:37:25;;;;;;;10.00;5.22;;;;;;;;;;6034056;29;20073;-84
2022/10/08 06:40:29;;;;;;;;;;;;;;;;;;6012710;29;20348;-83
2022/10/08 06:43:34;;;;;;;13.18;4.00;;;;;;;;;;6031223;29;19930;-84
2022/10/08 06:46:36;;;;;;;8.87;3.60;;;;;;;;;;6023084;29;20079;-83
2022/10/08 06:49:38;;;;;;;8.75;4.15;;;;;;;;;;6020793;29;20465;-84
2022/10/08 06:52:40;;;;;;;8.67;5.17;;;;;;;;;;6032986;29;20072;-84
2022/10/08 06:55:42;;;;;;;5.50;3.33;;;;;;;;;;6027730;29;20053;-84
2022/10/08 06:58:44;;;;;;;7.07;3.45;;;;;;;;;;6030269;29;20057;-82
2022/10/08 07:01:48;;;;;;;5.38;3.42;;;;;;;;;;6046128;29;20636;-84
2022/10/08 07:04:50;;;;;;;6.13;3.63;;;;;;;;;;6052773;29;20518;-84
2022/10/08 07:07:51;;;;;;;8.27;3.50;;;;;;;;;;6042064;29;20053;-85
2022/10/08 07:10:53;;;;;;;6.55;3.50;;;;;;;;;;6043907;29;20068;-85
2022/10/08 07:13:55;;;;;;;7.65;3.78;;;;;;;;;;6046789;29;20057;-84
2022/10/08 07:16:57;;;;;;;8.55;4.30;;;;;;;;;;6032166;29;20287;-85
2022/10/08 07:19:58;;;;;;;10.00;5.38;;;;;;;;;;6052021;29;20072;-84
2022/10/08 07:23:00;;;;;;;9.40;3.97;;;;;;;;;;6063047;29;20057;-84
2022/10/08 07:26:05;;;;;;;8.88;3.97;;;;;;;;;;6040655;29;20055;-83
2022/10/08 07:29:12;;;;;;;7.05;4.47;;;;;;;;;;6001494;29;20050;-83
2022/10/08 07:32:13;;;;;;;9.80;4.63;;;;;;;;;;6047341;29;20045;-83
2022/10/08 07:35:15;;;;;;;6.78;4.07;;;;;;;;;;6048433;29;20476;-84
2022/10/08 07:38:17;;;;;;;7.97;3.70;;;;;;;;;;6049269;29;20089;-83
2022/10/08 07:41:19;;;;;;;7.05;3.40;;;;;;;;;;6024509;29;20684;-83
2022/10/08 07:44:20;;;;;;;7.82;4.13;;;;;;;;;;6049340;29;20076;-84
2022/10/08 07:47:22;;;;;;;8.60;3.30;;;;;;;;;;6056759;29;20089;-84
2022/10/08 07:50:24;;;;;;;10.77;3.53;;;;;;;;;;6058173;29;20055;-83
2022/10/08 07:53:26;;;;;;;7.32;4.20;;;;;;;;;;6057389;29;20060;-83
2022/10/08 07:56:28;;;;;;;8.10;4.40;;;;;;;;;;6040938;29;20075;-84
2022/10/08 07:59:30;;;;;;;11.23;4.50;;;;;;;;;;6041611;29;20049;-84
2022/10/08 08:02:31;;;;;;;8.45;4.20;;;;;;;;;;6057058;29;20441;-83
2022/10/08 08:05:34;;;;;;;7.18;4.78;;;;;;;;;;6057828;29;20049;-84
2022/10/08 08:08:38;;;;;;;12.05;5.65;;;;;;;;;;6041606;29;20045;-83
2022/10/08 08:11:40;;;;;;;10.23;4.97;;;;;;;;;;6024930;29;20053;-84
2022/10/08 08:14:41;;;;;;;8.85;4.65;;;;;;;;;;6039561;29;20045;-84
2022/10/08 08:17:43;;;;;;;7.65;4.38;;;;;;;;;;6000544;29;20451;-83
2022/10/08 08:20:44;;;;;;;6.82;4.50;;;;;;;;;;6031581;29;20094;-83
2022/10/08 08:23:49;;;;;;;10.45;4.57;;;;;;;;;;6024803;29;20053;-83
2022/10/08 08:26:50;;;;;;;11.25;4.80;;;;;;;;;;6001974;29;20060;-83
2022/10/08 08:29:58;;;;;;;11.45;6.30;;;;;;;;;;6003453;29;20045;-83
2022/10/08 08:32:59;;;;;;;12.55;7.63;;;;;;;;;;6032334;29;20144;-82
2022/10/08 08:36:01;;;;;;;20.05;8.90;;;;;;;;;;6017536;29;20053;-82
2022/10/08 08:39:05;;;;;;;15.32;7.80;;;;;;;;;;6016644;29;20101;-83
2022/10/08 08:42:42;;;;;;;;;;;;;;;;;;6017662;29;20041;-84
2022/10/08 08:45:46;;;;;;;8.30;3.95;;;;;;;;;;5948529;29;19935;-84
2022/10/08 08:48:52;;;;;;;18.17;7.35;;;;;;;;;;6014006;29;20064;-83
2022/10/08 08:51:55;;;;;;;46.85;26.75;;;;;;;;;;6033470;29;20060;-82
2022/10/08 08:54:57;;;;;;;29.50;15.27;;;;;;;;;;6016359;29;20050;-83
2022/10/08 08:58:33;;;;;;;27.55;14.38;;;;;;;;;;6033147;29;20056;-83
2022/10/08 09:01:41;;;;;;;24.05;15.38;;;;;;;;;;5990461;29;20141;-83
2022/10/08 09:04:48;;;;;;;11.52;6.20;;;;;;;;;;6030487;29;20052;-83
2022/10/08 09:08:10;;;;;;;13.07;6.82;;;;;;;;;;6015784;29;20053;-83
2022/10/08 09:11:14;;;;;;;11.10;5.57;;;;;;;;;;6031933;29;20058;-83
2022/10/08 09:14:33;;;;;;;9.88;5.78;;;;;;;;;;6029801;29;20137;-83
2022/10/08 09:17:38;;;;;;;14.43;8.35;;;;;;;;;;6014399;29;20046;-83
2022/10/08 09:20:40;;;;;;;13.00;7.25;;;;;;;;;;6014584;29;20049;-82
2022/10/08 09:23:43;;;;;;;16.30;8.10;;;;;;;;;;6028850;29;20159;-82
2022/10/08 09:26:45;;;;;;;;;;;;;;;;;;6014602;29;20065;-83
2022/10/08 09:29:47;;;;;;;19.95;9.10;;;;;;;;;;6029727;29;19931;-83
2022/10/08 09:32:53;;;;;;;15.27;8.07;;;;;;;;;;6027547;29;20059;-82
2022/10/08 09:35:54;;;;;;;11.20;8.10;;;;;;;;;;6035384;29;20037;-82
2022/10/08 09:38:58;;;;;;;15.95;7.35;;;;;;;;;;6041642;29;20420;-82
2022/10/08 09:42:06;;;;;;;13.05;7.47;;;;;;;;;;6020388;29;20079;-83
2022/10/08 09:45:32;;;;;;;17.75;8.77;;;;;;;;;;6017457;29;20053;-82
2022/10/08 09:48:34;;;;;;;21.00;10.13;;;;;;;;;;6034229;29;20041;-82
2022/10/08 09:51:36;;;;;;;17.25;7.07;;;;;;;;;;6032803;29;20148;-83
2022/10/08 09:55:08;;;;;;;19.23;7.15;;;;;;;;;;6033078;29;20059;-82
2022/10/08 09:58:16;;;;;;;17.38;7.32;;;;;;;;;;6005900;29;20140;-82
2022/10/08 10:01:19;;;;;;;9.98;5.95;;;;;;;;;;6024005;29;20057;-82
2022/10/08 10:04:36;;;;;;;13.33;6.00;;;;;;;;;;6027674;29;20052;-82
2022/10/08 10:07:42;;;;;;;13.52;6.60;;;;;;;;;;6047265;29;20072;-82
2022/10/08 10:10:45;;;;;;;11.90;6.30;;;;;;;;;;6018509;29;20052;-81
2022/10/08 10:13:48;;;;;;;14.13;5.88;;;;;;;;;;6046482;29;20049;-83
2022/10/08 10:17:02;;;;;;;16.23;7.18;;;;;;;;;;6033755;29;20052;-83
2022/10/08 10:20:16;;;;;;;13.32;6.45;;;;;;;;;;6029520;29;20046;-82
2022/10/08 10:23:33;;;;;;;10.18;6.03;;;;;;;;;;6050310;29;20637;-82
2022/10/08 10:26:39;;;;;;;10.85;5.40;;;;;;;;;;6068389;29;20060;-83
2022/10/08 10:30:04;;;;;;;10.77;5.97;;;;;;;;;;6077772;29;20040;-84
2022/10/08 10:33:19;;;;;;;11.18;6.03;;;;;;;;;;6051846;29;20046;-83
2022/10/08 10:36:22;;;;;;;9.45;5.63;;;;;;;;;;6055756;29;20659;-83
2022/10/08 10:39:26;;;;;;;9.95;5.65;;;;;;;;;;6032908;29;20055;-83
2022/10/08 10:42:42;;;;;;;10.35;5.00;;;;;;;;;;6052927;29;20093;-82
2022/10/08 10:45:51;;;;;;;7.88;5.13;;;;;;;;;;6028853;29;20144;-83
2022/10/08 10:48:55;;;;;;;11.57;4.88;;;;;;;;;;6036646;29;20048;-83
2022/10/08 10:52:23;;;;;;;15.50;5.75;;;;;;;;;;6042036;29;20060;-83
2022/10/08 10:55:30;;;;;;;10.10;4.30;;;;;;;;;;6040681;29;20056;-83
2022/10/08 10:59:09;;;;;;;7.85;4.00;;;;;;;;;;6042882;29;20366;-83
2022/10/08 11:02:18;;;;;;;7.93;4.53;;;;;;;;;;6037428;29;20073;-83
2022/10/08 11:05:30;;;;;;;7.68;4.28;;;;;;;;;;6039666;29;20052;-83
2022/10/08 11:08:49;;;;;;;7.97;4.00;;;;;;;;;;6043621;29;20055;-83
2022/10/08 11:11:57;;;;;;;8.85;4.10;;;;;;;;;;6045767;29;20131;-84
2022/10/08 11:15:04;;;;;;;11.07;3.67;;;;;;;;;;6030081;29;20063;-83
2022/10/08 11:18:50;;;;;;;7.47;3.30;;;;;;;;;;6027596;29;20059;-85
2022/10/08 11:22:00;;;;;;;7.75;3.20;;;;;;;;;;6049860;29;20559;-83
2022/10/08 11:25:24;;;;;;;6.68;2.92;;;;;;;;;;6034813;29;20056;-85
2022/10/08 11:28:28;;;;;;;7.95;2.67;;;;;;;;;;6045706;29;20553;-84
2022/10/08 11:31:41;;;;;;;7.07;3.50;;;;;;;;;;6057104;29;20550;-84
2022/10/08 11:35:15;;;;;;;5.18;2.40;;;;;;;;;;6028808;29;20045;-85
2022/10/08 11:38:28;;;;;;;9.65;2.67;;;;;;;;;;6005891;29;20548;-84
2022/10/08 11:41:48;;;;;;;4.03;2.85;;;;;;;;;;6011344;29;20120;-85
2022/10/08 11:44:50;;;;;;;6.63;3.15;;;;;;;;;;6022699;29;20052;-86
2022/10/08 11:47:54;;;;;;;8.30;4.20;;;;;;;;;;6024280;29;20145;-85
2022/10/08 11:51:18;;;;;;;7.95;4.18;;;;;;;;;;6043450;29;20563;-85
2022/10/08 11:54:27;;;;;;;;;;;;;;;;;;6029589;29;20067;-84
2022/10/08 11:57:34;;;;;;;5.82;2.38;;;;;;;;;;6020143;29;20350;-85
2022/10/08 12:01:05;;;;;;;3.83;2.22;;;;;;;;;;6019834;29;20200;-85
2022/10/08 12:04:18;;;;;;;6.18;3.35;;;;;;;;;;6013636;29;20052;-84
2022/10/08 12:07:36;;;;;;;5.70;2.63;;;;;;;;;;6045780;29;20217;-85
2022/10/08 12:10:38;;;;;;;4.30;3.15;;;;;;;;;;6032864;29;20063;-85
2022/10/08 12:13:40;;;;;;;5.13;3.60;;;;;;;;;;6045501;29;20049;-84
2022/10/08 12:16:48;;;;;;;3.45;2.75;;;;;;;;;;6008911;29;20115;-85
2022/10/08 12:20:01;;;;;;;3.50;3.20;;;;;;;;;;6029133;29;20061;-86
2022/10/08 12:23:07;;;;;;;6.18;2.60;;;;;;;;;;6019147;29;20147;-85
2022/10/08 12:26:11;;;;;;;6.68;3.20;;;;;;;;;;6039133;29;20048;-85
2022/10/08 12:29:26;;;;;;;3.20;1.95;;;;;;;;;;6030818;29;20048;-85
2022/10/08 12:32:40;;;;;;;4.53;2.55;;;;;;;;;;6028370;29;20048;-86
2022/10/08 12:36:10;;;;;;;2.20;1.50;;;;;;;;;;6024931;29;20987;-85
2022/10/08 12:39:48;;;;;;;5.63;2.03;;;;;;;;;;6009789;29;20061;-86
2022/10/08 12:42:57;;;;;;;3.42;1.63;;;;;;;;;;5995591;29;20069;-85
2022/10/08 12:46:05;;;;;;;2.58;1.80;;;;;;;;;;6033280;29;20975;-87
2022/10/08 12:49:21;;;;;;;3.85;2.20;;;;;;;;;;6011959;29;20059;-86
2022/10/08 12:52:23;;;;;;;3.42;1.27;;;;;;;;;;6012189;29;20606;-85
2022/10/08 12:55:25;;;;;;;5.93;2.55;;;;;;;;;;5987830;29;20042;-84
2022/10/08 12:58:32;;;;;;;4.27;1.50;;;;;;;;;;6030776;29;20539;-85
2022/10/08 13:01:34;;;;;;;4.40;2.10;;;;;;;;;;6017593;29;20445;-85
2022/10/08 13:04:44;;;;;;;3.78;1.85;;;;;;;;;;6025813;29;20555;-87
2022/10/08 13:07:45;;;;;;;5.97;2.22;;;;;;;;;;6038794;29;20061;-87
2022/10/08 13:10:51;;;;;;;4.90;1.83;;;;;;;;;;6012463;29;20461;-86
2022/10/08 13:13:52;;;;;;;4.93;1.60;;;;;;;;;;6027900;29;20587;-86
2022/10/08 13:16:55;;;;;;;4.75;1.70;;;;;;;;;;6043137;29;20424;-87
2022/10/08 13:20:09;;;;;;;2.38;1.50;;;;;;;;;;6026435;29;20133;-87
2022/10/08 13:23:43;;;;;;;4.03;1.65;;;;;;;;;;6033285;29;20542;-87
2022/10/08 13:26:48;;;;;;;3.13;1.77;;;;;;;;;;5986274;29;20067;-88
2022/10/08 13:29:50;;;;;;;7.03;3.85;;;;;;;;;;6034697;29;20065;-87
2022/10/08 13:33:03;;;;;;;3.72;1.42;;;;;;;;;;6050762;29;20045;-87
2022/10/08 13:36:04;;;;;;;3.47;1.40;;;;;;;;;;6025135;29;20049;-86
2022/10/08 13:39:22;;;;;;;4.32;1.70;;;;;;;;;;6037886;29;20101;-85
2022/10/08 13:42:26;;;;;;;3.35;1.48;;;;;;;;;;6029843;29;20404;-85
2022/10/08 13:45:35;;;;;;;6.65;2.40;;;;;;;;;;6025344;29;20051;-83
2022/10/08 13:48:42;;;;;;;3.92;1.50;;;;;;;;;;6013361;29;20512;-84
2022/10/08 13:51:43;;;;;;;4.70;1.60;;;;;;;;;;6049364;29;20835;-85
2022/10/08 13:54:46;;;;;;;2.47;1.20;;;;;;;;;;6051974;29;20056;-84
2022/10/08 13:57:48;;;;;;;4.18;1.50;;;;;;;;;;6038562;29;20056;-85
2022/10/08 14:00:53;;;;;;;3.35;1.27;;;;;;;;;;6025471;29;20049;-84
2022/10/08 14:04:01;;;;;;;3.17;1.35;;;;;;;;;;6053027;29;20055;-84
2022/10/08 14:07:03;;;;;;;4.15;1.50;;;;;;;;;;6041129;29;20041;-86
2022/10/08 14:10:05;;;;;;;5.22;1.50;;;;;;;;;;6054781;29;20488;-86
2022/10/08 14:13:10;;;;;;;6.10;1.70;;;;;;;;;;6061301;29;20145;-83
2022/10/08 14:16:12;;;;;;;4.63;1.50;;;;;;;;;;6013187;29;20052;-84
2022/10/08 14:19:13;;;;;;;2.58;1.73;;;;;;;;;;6031296;29;20049;-85
2022/10/08 14:22:16;;;;;;;4.13;1.75;;;;;;;;;;6023880;29;20045;-84
2022/10/08 14:25:24;;;;;;;2.45;1.40;;;;;;;;;;6004372;29;20046;-85
2022/10/08 14:28:26;;;;;;;4.75;1.55;;;;;;;;;;6065129;29;20096;-84
2022/10/08 14:31:27;;;;;;;4.80;2.78;;;;;;;;;;6025279;29;20047;-83
2022/10/08 14:34:29;;;;;;;2.85;1.40;;;;;;;;;;6048976;29;20093;-84
2022/10/08 14:37:32;;;;;;;2.05;1.20;;;;;;;;;;6044662;29;20057;-84
2022/10/08 14:40:35;;;;;;;3.00;1.50;;;;;;;;;;6055056;29;20100;-84
2022/10/08 14:43:37;;;;;;;3.83;1.40;;;;;;;;;;6040296;29;20053;-84
2022/10/08 14:46:38;;;;;;;2.90;1.60;;;;;;;;;;6014234;29;20053;-84
2022/10/08 14:49:42;;;;;;;5.90;1.80;;;;;;;;;;6058706;29;20132;-83
2022/10/08 14:52:44;;;;;;;4.38;1.70;;;;;;;;;;6041951;29;20056;-83
2022/10/08 14:55:49;;;;;;;2.95;1.40;;;;;;;;;;6039388;29;20084;-84
2022/10/08 14:59:10;;;;;;;3.92;1.50;;;;;;;;;;6043060;29;20056;-84
2022/10/08 15:02:12;;;;;;;3.05;1.77;;;;;;;;;;6018977;29;20093;-84
2022/10/08 15:05:14;;;;;;;6.30;1.95;;;;;;;;;;6022609;29;20065;-84
2022/10/08 15:08:16;;;;;;;2.90;1.57;;;;;;;;;;6013922;29;20753;-84
2022/10/08 15:11:19;;;;;;;2.78;1.52;;;;;;;;;;6016653;29;20049;-84
2022/10/08 15:19:08;;;;;;;4.75;2.60;;;;;;;;;;6017250;29;20145;-85
2022/10/08 15:22:09;;;;;;;4.82;1.95;;;;;;;;;;6014796;29;20045;-85
2022/10/08 15:25:11;;;;;;;4.47;1.38;;;;;;;;;;6029108;29;20059;-85
2022/10/08 15:28:12;;;;;;;3.17;1.52;;;;;;;;;;6024253;29;20397;-84
2022/10/08 15:31:16;;;;;;;4.75;1.88;;;;;;;;;;6029951;29;20083;-85
2022/10/08 15:34:19;;;;;;;3.13;1.80;;;;;;;;;;6021912;29;20053;-84
2022/10/08 15:37:20;;;;;;;3.47;2.63;;;;;;;;;;6043648;29;20056;-86
2022/10/08 15:40:22;;;;;;;3.42;1.63;;;;;;;;;;6022873;29;20052;-86
2022/10/08 15:43:31;;;;;;;4.85;1.95;;;;;;;;;;6024804;29;20059;-85
2022/10/08 15:46:33;;;;;;;4.47;1.70;;;;;;;;;;6041548;29;20132;-85
2022/10/08 15:49:37;;;;;;;4.68;2.05;;;;;;;;;;6039524;29;20053;-85
2022/10/08 15:52:39;;;;;;;2.03;1.10;;;;;;;;;;6027454;29;20104;-85
2022/10/08 15:55:56;;;;;;;3.72;1.90;;;;;;;;;;6045807;29;20089;-84
2022/10/08 15:58:59;;;;;;;4.53;1.70;;;;;;;;;;6032600;29;20050;-84
2022/10/08 16:02:01;;;;;;;;;;;;;;;;;;6033183;29;20093;-87
2022/10/08 16:05:03;;;;;;;4.65;1.63;;;;;;;;;;6017879;29;20589;-84
2022/10/08 16:08:08;;;;;;;5.40;1.70;;;;;;;;;;6018543;29;20060;-86
2022/10/08 16:11:14;;;;;;;5.70;2.55;;;;;;;;;;6023321;29;20585;-86
2022/10/08 16:14:18;;;;;;;4.00;1.95;;;;;;;;;;6040979;29;20096;-85
2022/10/08 16:17:20;;;;;;;2.88;1.52;;;;;;;;;;6017674;29;20050;-85
2022/10/08 16:20:22;;;;;;;1.77;1.10;;;;;;;;;;6028372;29;22613;-85
2022/10/08 16:23:27;;;;;;;4.45;1.35;;;;;;;;;;6048042;29;20068;-84
2022/10/08 16:26:31;;;;;;;3.53;1.65;;;;;;;;;;6034059;29;20749;-85
2022/10/08 16:29:32;;;;;;;4.07;2.20;;;;;;;;;;6013624;29;20045;-85
2022/10/08 16:32:34;;;;;;;3.83;1.70;;;;;;;;;;6037668;29;20135;-84
2022/10/08 16:35:37;;;;;;;3.38;1.45;;;;;;;;;;6022429;29;20128;-84
2022/10/08 16:38:39;;;;;;;4.80;3.10;;;;;;;;;;6040377;29;20249;-84
2022/10/08 16:41:41;;;;;;;5.18;3.78;;;;;;;;;;6020012;29;20063;-84
2022/10/08 16:44:43;;;;;;;4.85;2.58;;;;;;;;;;6009588;29;20057;-84
2022/10/08 16:47:45;;;;;;;5.88;3.05;;;;;;;;;;6045283;29;20063;-83
2022/10/08 16:50:47;;;;;;;7.63;4.75;;;;;;;;;;6020211;29;20055;-85
2022/10/08 16:53:51;;;;;;;4.63;3.42;;;;;;;;;;6019562;29;20048;-85
2022/10/08 16:56:53;;;;;;;2.15;1.95;;;;;;;;;;6032941;29;20044;-84
2022/10/08 16:59:56;;;;;;;4.78;1.85;;;;;;;;;;6039638;29;20056;-85
2022/10/08 17:02:58;;;;;;;4.63;1.67;;;;;;;;;;6029181;29;20042;-85
2022/10/08 17:06:00;;;;;;;4.13;1.70;;;;;;;;;;6015546;29;20050;-84
2022/10/08 17:09:03;;;;;;;6.03;1.77;;;;;;;;;;6027385;29;20048;-85
2022/10/08 17:12:05;;;;;;;34.38;14.88;;;;;;;;;;6027892;29;20938;-85
2022/10/08 17:15:07;;;;;;;64.88;21.02;;;;;;;;;;6029117;29;20063;-86
2022/10/08 17:18:09;;;;;;;254.17;72.20;;;;;;;;;;6040316;29;20052;-85
2022/10/08 17:21:12;;;;;;;15.40;5.63;;;;;;;;;;6020602;29;20045;-85
2022/10/08 17:24:14;;;;;;;4.78;1.73;;;;;;;;;;6033677;29;20493;-85
2022/10/08 17:27:16;;;;;;;3.25;1.65;;;;;;;;;;6006965;29;20048;-85
2022/10/08 17:30:18;;;;;;;72.10;18.65;;;;;;;;;;6021917;29;20113;-85
2022/10/08 17:33:22;;;;;;;43.65;14.02;;;;;;;;;;6029766;29;20053;-86
2022/10/08 17:36:42;;;;;;;26.88;10.10;;;;;;;;;;6013802;29;20096;-85
2022/10/08 17:39:47;;;;;;;22.52;11.63;;;;;;;;;;6035916;29;21065;-85
2022/10/08 17:42:49;;;;;;;15.60;7.57;;;;;;;;;;6014841;29;20053;-85
2022/10/08 17:45:51;;;;;;;12.52;10.65;;;;;;;;;;6039918;29;20053;-86
2022/10/08 17:48:53;;;;;;;14.82;13.32;;;;;;;;;;6016736;29;20055;-86
2022/10/08 17:52:00;;;;;;;12.53;7.53;;;;;;;;;;6018027;29;20092;-85
2022/10/08 17:55:07;;;;;;;17.33;9.88;;;;;;;;;;6003110;29;20056;-84
2022/10/08 17:58:09;;;;;;;31.40;17.23;;;;;;;;;;6017237;29;20065;-86
2022/10/08 18:01:13;;;;;;;17.33;9.48;;;;;;;;;;6041479;29;20084;-85
2022/10/08 18:04:16;;;;;;;;;;;;;;;;;;6042279;29;20053;-86
2022/10/08 18:07:17;;;;;;;14.68;8.40;;;;;;;;;;6034077;29;19939;-85
2022/10/08 18:10:21;;;;;;;14.13;7.82;;;;;;;;;;6018762;29;20049;-84
2022/10/08 18:13:23;;;;;;;11.07;7.68;;;;;;;;;;6012016;29;20048;-85
2022/10/08 18:16:25;;;;;;;16.30;9.40;;;;;;;;;;6013626;29;20065;-85
2022/10/08 18:19:27;;;;;;;17.08;9.48;;;;;;;;;;5975318;29;20073;-85
2022/10/08 18:22:28;;;;;;;17.58;9.45;;;;;;;;;;6015092;29;20057;-84
2022/10/08 18:25:37;;;;;;;14.55;8.38;;;;;;;;;;6046710;29;20558;-84
2022/10/08 18:28:39;;;;;;;16.52;8.95;;;;;;;;;;6018626;29;20057;-85
2022/10/08 18:31:45;;;;;;;12.05;7.80;;;;;;;;;;6021748;29;20480;-85
2022/10/08 18:34:47;;;;;;;;;;;;;;;;;;6003629;29;20053;-85
2022/10/08 18:37:54;;;;;;;20.15;11.77;;;;;;;;;;5961968;29;20008;-85